Time;durP1;ratioP1;P1;durP2;ratioP2;P2;SDS_P1;SDS_P2;PMS_P1;PMS_P2;Temp;Humidity;BMP_temperature;BMP_pressure;BME280_temperature;BME280_humidity;BME280_pressure;Samples;Min_cycle;Max_cycle;Signal;HPM_P1;HPM_P2
2023/08/02 00:00:39;;;;;;;3.63;1.80;;;;;;;19.59;nan;98644.16;5011819;28;20248;-80
2023/08/02 00:03:04;;;;;;;1.77;1.63;;;;;;;19.56;nan;98642.69;5011812;28;20389;-81
2023/08/02 00:05:30;;;;;;;2.83;1.77;;;;;;;19.55;nan;98638.38;5015519;28;20429;-79
2023/08/02 00:07:56;;;;;;;2.80;1.80;;;;;;;19.52;nan;98637.88;5011722;28;20214;-81
2023/08/02 00:10:22;;;;;;;2.90;1.30;;;;;;;19.51;nan;98634.41;5012038;28;20308;-79
2023/08/02 00:12:51;;;;;;;2.30;1.20;;;;;;;19.50;nan;98622.09;5015120;28;20956;-79
2023/08/02 00:15:18;;;;;;;2.50;1.53;;;;;;;19.51;nan;98621.09;5014582;28;20194;-78
2023/08/02 00:17:44;;;;;;;3.87;1.50;;;;;;;19.52;nan;98614.75;5012498;28;20489;-78
2023/08/02 00:20:09;;;;;;;1.67;1.20;;;;;;;19.51;nan;98613.09;5011854;28;20510;-79
2023/08/02 00:22:35;;;;;;;1.93;1.00;;;;;;;19.50;nan;98619.44;5017795;28;20215;-79
2023/08/02 00:25:01;;;;;;;2.23;1.20;;;;;;;19.48;nan;98604.66;5009982;28;20453;-78
2023/08/02 00:27:26;;;;;;;2.07;1.40;;;;;;;19.47;nan;98590.50;5013186;28;20218;-78
2023/08/02 00:29:52;;;;;;;2.60;1.10;;;;;;;19.45;nan;98595.19;5016048;28;20449;-80
2023/08/02 00:32:18;;;;;;;4.67;1.60;;;;;;;19.43;nan;98591.84;5009720;28;20691;-78
2023/08/02 00:34:44;;;;;;;2.00;1.37;;;;;;;19.42;nan;98587.56;5013906;28;20301;-78
2023/08/02 00:37:09;;;;;;;1.43;1.20;;;;;;;19.42;nan;98579.56;5009696;28;20481;-80
2023/08/02 00:39:35;;;;;;;1.37;1.27;;;;;;;19.43;nan;98581.19;5010197;28;20286;-79
2023/08/02 00:42:00;;;;;;;2.07;1.47;;;;;;;19.44;nan;98580.19;4991193;28;20625;-80
2023/08/02 00:44:25;;;;;;;3.90;1.40;;;;;;;19.42;nan;98580.38;5012681;28;20203;-78
2023/08/02 00:46:51;;;;;;;1.93;1.20;;;;;;;19.43;nan;98567.88;4998513;28;20213;-79
2023/08/02 00:49:16;;;;;;;1.60;1.50;;;;;;;19.42;nan;98569.72;5009740;28;20225;-80
2023/08/02 00:51:42;;;;;;;1.30;1.20;;;;;;;19.42;nan;98569.72;5013342;28;20317;-81
2023/08/02 00:54:07;;;;;;;1.27;1.17;;;;;;;19.42;nan;98576.91;5014116;28;20201;-78
2023/08/02 00:56:33;;;;;;;2.83;1.50;;;;;;;19.40;nan;98576.25;4996490;28;20660;-78
2023/08/02 00:58:59;;;;;;;1.80;1.30;;;;;;;19.40;nan;98571.75;5016642;28;20457;-78
2023/08/02 01:01:25;;;;;;;2.23;2.03;;;;;;;19.38;nan;98564.94;4995488;28;20198;-80
2023/08/02 01:03:51;;;;;;;1.47;1.37;;;;;;;19.36;nan;98554.47;5009377;28;20298;-80
2023/08/02 01:06:32;;;;;;;1.90;1.43;;;;;;;19.35;nan;98551.97;5012905;28;21241;-80
2023/08/02 01:09:07;;;;;;;2.80;1.60;;;;;;;19.33;nan;98564.63;4998493;28;20459;-78
2023/08/02 01:11:47;;;;;;;2.37;1.60;;;;;;;19.34;nan;98567.13;4994233;28;20487;-78
2023/08/02 01:14:18;;;;;;;2.00;1.70;;;;;;;19.33;nan;98565.47;5015598;28;20464;-80
2023/08/02 01:16:44;;;;;;;2.50;1.20;;;;;;;19.31;nan;98566.66;5017742;28;20500;-78
2023/08/02 01:19:11;;;;;;;2.63;1.30;;;;;;;19.33;nan;98564.63;5016008;28;20457;-78
2023/08/02 01:21:37;;;;;;;3.03;1.20;;;;;;;19.34;nan;98548.50;5013350;28;20512;-81
2023/08/02 01:24:04;;;;;;;2.00;1.07;;;;;;;19.37;nan;98549.97;5012917;28;20983;-81
2023/08/02 01:26:32;;;;;;;3.00;1.63;;;;;;;19.35;nan;98531.50;5013159;28;20509;-78
2023/08/02 01:29:02;;;;;;;3.27;1.73;;;;;;;19.38;nan;98540.97;5012030;28;20457;-78
2023/08/02 01:31:29;;;;;;;3.90;1.80;;;;;;;19.39;nan;98545.31;5013578;28;20466;-78
2023/08/02 01:33:56;;;;;;;2.97;1.67;;;;;;;19.40;nan;98550.44;5007671;28;20458;-80
2023/08/02 01:36:22;;;;;;;2.20;1.90;;;;;;;19.44;nan;98550.88;5013372;28;20465;-79
2023/08/02 01:38:48;;;;;;;1.83;1.30;;;;;;;19.45;nan;98556.06;5011713;28;20528;-78
2023/08/02 01:41:14;;;;;;;1.77;1.50;;;;;;;19.44;nan;98556.22;5008296;28;21349;-78
2023/08/02 01:43:39;;;;;;;2.07;1.87;;;;;;;19.44;nan;98553.56;5009213;28;20276;-78
2023/08/02 01:46:05;;;;;;;1.97;1.40;;;;;;;19.44;nan;98548.22;5011992;28;20317;-80
2023/08/02 01:48:30;;;;;;;1.80;1.47;;;;;;;19.39;nan;98537.31;5012121;28;20245;-80
2023/08/02 01:50:56;;;;;;;2.73;1.83;;;;;;;19.37;nan;98523.34;5012252;28;20202;-80
2023/08/02 01:53:21;;;;;;;1.80;1.70;;;;;;;19.35;nan;98515.53;5011869;28;20229;-81
2023/08/02 01:55:46;;;;;;;3.63;1.50;;;;;;;19.32;nan;98507.91;5013596;28;20199;-81
2023/08/02 01:58:12;;;;;;;3.07;1.70;;;;;;;19.33;nan;98500.72;5007371;28;20221;-81
2023/08/02 02:00:38;;;;;;;2.00;1.43;;;;;;;19.32;nan;98507.06;4995264;28;20304;-77
2023/08/02 02:03:04;;;;;;;4.60;3.93;;;;;;;19.31;nan;98505.41;5006200;28;20804;-77
2023/08/02 02:05:29;;;;;;;2.60;1.70;;;;;;;19.33;nan;98500.72;5005785;28;20210;-81
2023/08/02 02:07:55;;;;;;;2.43;1.70;;;;;;;19.35;nan;98499.53;4991281;28;20210;-79
2023/08/02 02:10:20;;;;;;;3.37;1.30;;;;;;;19.38;nan;98491.19;4993775;28;20224;-78
2023/08/02 02:12:45;;;;;;;2.00;1.57;;;;;;;19.42;nan;98481.03;5014737;28;20289;-79
2023/08/02 02:15:11;;;;;;;2.37;1.70;;;;;;;19.44;nan;98478.97;5005165;28;20194;-79
2023/08/02 02:17:39;;;;;;;2.87;1.93;;;;;;;19.45;nan;98467.34;4984332;28;20214;-80
2023/08/02 02:20:06;;;;;;;2.60;1.70;;;;;;;19.48;nan;98460.81;5002224;28;21382;-80
2023/08/02 02:22:31;;;;;;;2.53;1.83;;;;;;;19.49;nan;98465.94;5002019;28;20463;-79
2023/08/02 02:24:56;;;;;;;2.17;1.80;;;;;;;19.50;nan;98464.13;4989237;28;21015;-78
2023/08/02 02:27:22;;;;;;;2.63;1.80;;;;;;;19.52;nan;98459.44;5005520;28;20204;-77
2023/08/02 02:29:47;;;;;;;4.17;1.97;;;;;;;19.50;nan;98453.50;4991663;28;20200;-81
2023/08/02 02:32:13;;;;;;;1.93;1.57;;;;;;;19.50;nan;98456.16;4988702;28;21499;-79
2023/08/02 02:34:38;;;;;;;1.83;1.40;;;;;;;19.46;nan;98456.50;5004108;28;20210;-81
2023/08/02 02:37:04;;;;;;;2.50;1.60;;;;;;;19.46;nan;98455.66;5002367;28;20219;-79
2023/08/02 02:39:29;;;;;;;2.80;2.10;;;;;;;19.44;nan;98463.00;5003758;28;20235;-78
2023/08/02 02:41:55;;;;;;;2.90;1.87;;;;;;;19.42;nan;98470.38;5007013;28;20199;-80
2023/08/02 02:44:20;;;;;;;1.73;1.40;;;;;;;19.40;nan;98462.56;5015006;28;20694;-79
2023/08/02 02:46:46;;;;;;;3.17;1.93;;;;;;;19.35;nan;98464.09;4994984;28;20214;-81
2023/08/02 02:49:12;;;;;;;3.00;2.10;;;;;;;19.28;nan;98465.84;4998937;28;20810;-82
2023/08/02 02:51:37;;;;;;;2.53;1.70;;;;;;;19.22;nan;98478.03;5010924;28;20207;-80
2023/08/02 02:54:02;;;;;;;6.10;1.90;;;;;;;19.18;nan;98479.41;5013075;28;20277;-78
2023/08/02 02:56:28;;;;;;;2.67;1.90;;;;;;;19.12;nan;98473.00;5012526;28;20564;-81
2023/08/02 02:58:53;;;;;;;2.23;1.80;;;;;;;19.07;nan;98467.38;5003635;28;20770;-78
2023/08/02 03:01:19;;;;;;;2.60;1.97;;;;;;;19.03;nan;98468.72;5008811;28;20250;-80
2023/08/02 03:03:44;;;;;;;4.17;2.70;;;;;;;19.00;nan;98475.22;5008099;28;20747;-80
2023/08/02 03:06:09;;;;;;;3.03;2.17;;;;;;;19.01;nan;98476.09;5009017;28;20445;-78
2023/08/02 03:08:35;;;;;;;3.03;2.30;;;;;;;18.96;nan;98468.63;5008420;28;20293;-77
2023/08/02 03:11:00;;;;;;;3.50;2.00;;;;;;;18.89;nan;98464.19;5009921;28;20239;-81
2023/08/02 03:13:26;;;;;;;6.20;2.53;;;;;;;18.79;nan;98465.28;5008796;28;20216;-80
2023/08/02 03:15:51;;;;;;;3.87;2.50;;;;;;;18.66;nan;98454.38;5010080;28;20222;-78
2023/08/02 03:18:16;;;;;;;3.37;2.37;;;;;;;18.54;nan;98459.25;4990659;28;20225;-80
2023/08/02 03:20:42;;;;;;;2.60;2.10;;;;;;;18.47;nan;98458.31;5013538;28;20214;-77
2023/08/02 03:23:09;;;;;;;3.90;2.40;;;;;;;18.42;nan;98458.03;5015736;28;20302;-77
2023/08/02 03:25:35;;;;;;;4.73;2.73;;;;;;;18.40;nan;98446.72;5015296;28;21137;-77
2023/08/02 03:28:00;;;;;;;3.03;2.70;;;;;;;18.38;nan;98439.94;5013457;28;20475;-80
2023/08/02 03:30:25;;;;;;;3.80;2.50;;;;;;;18.26;nan;98429.69;5018394;28;20460;-78
2023/08/02 03:32:51;;;;;;;4.43;2.40;;;;;;;18.17;nan;98425.41;5013137;28;20261;-76
2023/08/02 03:35:16;;;;;;;3.23;2.43;;;;;;;18.10;nan;98421.81;5015194;28;20779;-80
2023/08/02 03:37:42;;;;;;;3.03;2.43;;;;;;;18.05;nan;98419.69;5016393;28;20464;-76
2023/08/02 03:40:07;;;;;;;4.97;3.00;;;;;;;18.00;nan;98421.22;5017532;28;20195;-78
2023/08/02 03:42:33;;;;;;;5.03;2.70;;;;;;;17.96;nan;98415.44;5007684;28;20765;-80
2023/08/02 03:44:58;;;;;;;2.80;2.27;;;;;;;17.98;nan;98423.19;5013862;28;20456;-77
2023/08/02 03:47:24;;;;;;;5.67;3.00;;;;;;;18.02;nan;98411.25;5013919;28;20260;-78
2023/08/02 03:49:49;;;;;;;4.87;3.40;;;;;;;18.02;nan;98403.28;5014482;28;20539;-77
2023/08/02 03:52:14;;;;;;;6.07;3.10;;;;;;;18.00;nan;98413.25;5014424;28;20276;-79
2023/08/02 03:54:40;;;;;;;4.40;3.07;;;;;;;17.98;nan;98405.44;5014233;28;20805;-77
2023/08/02 03:57:07;;;;;;;2.73;2.07;;;;;;;18.00;nan;98399.94;5008985;28;21144;-80
2023/08/02 03:59:32;;;;;;;4.07;3.13;;;;;;;17.99;nan;98396.47;5014866;28;20283;-79
2023/08/02 04:01:57;;;;;;;4.17;2.80;;;;;;;18.02;nan;98382.00;5012724;28;20548;-79
2023/08/02 04:04:23;;;;;;;4.03;2.33;;;;;;;17.98;nan;98381.53;5017249;28;20202;-78
2023/08/02 04:06:48;;;;;;;6.03;3.10;;;;;;;17.97;nan;98379.06;5012986;28;20530;-77
2023/08/02 04:09:14;;;;;;;3.60;2.37;;;;;;;17.91;nan;98373.44;5018489;28;21202;-78
2023/08/02 04:11:39;;;;;;;4.43;2.70;;;;;;;17.88;nan;98371.13;5017557;28;20199;-76
2023/08/02 04:14:04;;;;;;;5.07;2.60;;;;;;;17.88;nan;98363.16;5014569;28;20210;-76
2023/08/02 04:16:30;;;;;;;3.93;3.40;;;;;;;17.91;nan;98362.81;5013764;28;20244;-76
2023/08/02 04:18:55;;;;;;;3.73;2.23;;;;;;;17.95;nan;98354.47;5017962;28;20209;-78
2023/08/02 04:21:21;;;;;;;3.03;2.17;;;;;;;17.99;nan;98351.31;5019661;28;20210;-78
2023/08/02 04:23:50;;;;;;;3.33;2.13;;;;;;;18.01;nan;98337.84;5023133;28;20249;-76
2023/08/02 04:26:15;;;;;;;3.53;3.23;;;;;;;18.03;nan;98344.63;5014947;28;20263;-78
2023/08/02 04:28:41;;;;;;;3.93;2.50;;;;;;;18.02;nan;98339.50;5020905;28;20442;-76
2023/08/02 04:31:06;;;;;;;4.10;3.37;;;;;;;18.02;nan;98342.97;5019004;28;24183;-76
2023/08/02 04:33:32;;;;;;;3.83;2.20;;;;;;;18.03;nan;98341.16;5019800;28;20243;-77
2023/08/02 04:35:58;;;;;;;7.23;3.03;;;;;;;18.07;nan;98337.97;5012860;28;20449;-76
2023/08/02 04:38:24;;;;;;;2.67;2.47;;;;;;;18.11;nan;98330.47;5016695;28;20197;-76
2023/08/02 04:40:49;;;;;;;3.80;2.60;;;;;;;18.14;nan;98330.09;5016663;28;20475;-77
2023/08/02 04:43:14;;;;;;;3.93;2.70;;;;;;;18.18;nan;98322.63;5017572;28;20217;-76
2023/08/02 04:45:40;;;;;;;3.60;3.10;;;;;;;18.21;nan;98323.09;5017732;28;20196;-77
2023/08/02 04:48:05;;;;;;;3.10;1.90;;;;;;;18.26;nan;98322.56;5008030;28;20675;-78
2023/08/02 04:50:34;;;;;;;4.17;1.97;;;;;;;18.27;nan;98316.22;5011529;28;20204;-77
2023/08/02 04:53:00;;;;;;;3.93;2.47;;;;;;;18.28;nan;98316.06;5010689;28;20207;-78
2023/08/02 04:55:26;;;;;;;5.20;3.10;;;;;;;18.31;nan;98306.91;5012969;28;20462;-78
2023/08/02 04:57:51;;;;;;;5.70;1.80;;;;;;;18.34;nan;98309.19;5008517;28;20294;-77
2023/08/02 05:00:17;;;;;;;5.27;2.70;;;;;;;18.37;nan;98313.34;5010664;28;21435;-77
2023/08/02 05:02:42;;;;;;;3.97;2.50;;;;;;;18.39;nan;98311.31;5011417;28;20285;-78
2023/08/02 05:05:08;;;;;;;4.00;2.30;;;;;;;18.40;nan;98316.44;5012753;28;20459;-76
2023/08/02 05:07:35;;;;;;;2.90;1.87;;;;;;;18.41;nan;98323.41;5008522;28;20253;-77
2023/08/02 05:10:04;;;;;;;3.63;2.20;;;;;;;18.40;nan;98323.59;4997184;28;20803;-76
2023/08/02 05:12:39;;;;;;;4.10;2.53;;;;;;;18.38;nan;98317.63;5015896;28;20504;-77
2023/08/02 05:15:06;;;;;;;3.67;2.20;;;;;;;18.38;nan;98312.31;5005105;28;20523;-77
2023/08/02 05:17:31;;;;;;;3.67;2.13;;;;;;;18.35;nan;98319.63;5007414;28;20739;-76
2023/08/02 05:19:57;;;;;;;3.47;2.67;;;;;;;18.35;nan;98316.16;5009463;28;20473;-78
2023/08/02 05:22:23;;;;;;;2.47;2.03;;;;;;;18.35;nan;98310.84;5007154;28;20300;-77
2023/08/02 05:24:52;;;;;;;2.30;2.10;;;;;;;18.34;nan;98310.03;5005750;28;21079;-76
2023/08/02 05:27:18;;;;;;;4.17;3.47;;;;;;;18.34;nan;98312.69;5008857;28;20213;-77
2023/08/02 05:29:44;;;;;;;6.30;3.00;;;;;;;18.34;nan;98319.84;5005162;28;21423;-77
2023/08/02 05:32:09;;;;;;;5.40;4.90;;;;;;;18.33;nan;98323.47;5004661;28;20201;-77
2023/08/02 05:34:35;;;;;;;3.63;3.00;;;;;;;18.33;nan;98311.03;5009477;28;20489;-76
2023/08/02 05:37:00;;;;;;;4.67;3.50;;;;;;;18.34;nan;98296.72;5010496;28;20215;-78
2023/08/02 05:39:25;;;;;;;4.00;2.77;;;;;;;18.36;nan;98293.88;5003909;28;20339;-78
2023/08/02 05:41:51;;;;;;;4.07;2.33;;;;;;;18.39;nan;98292.69;5008762;28;20318;-76
2023/08/02 05:44:16;;;;;;;4.80;2.90;;;;;;;18.40;nan;98287.22;5005457;28;20232;-79
2023/08/02 05:46:42;;;;;;;3.40;2.00;;;;;;;18.39;nan;98284.72;5010487;28;20246;-77
2023/08/02 05:49:08;;;;;;;3.63;1.97;;;;;;;18.40;nan;98283.72;5007670;28;20197;-78
2023/08/02 05:51:33;;;;;;;8.70;4.70;;;;;;;18.40;nan;98279.22;5004967;28;20464;-76
2023/08/02 05:53:58;;;;;;;4.17;2.70;;;;;;;18.42;nan;98266.59;5009124;28;20231;-78
2023/08/02 05:56:24;;;;;;;3.83;2.50;;;;;;;18.42;nan;98263.13;5009978;28;20265;-79
2023/08/02 05:58:50;;;;;;;2.80;2.37;;;;;;;18.42;nan;98252.47;5005284;28;20806;-79
2023/08/02 06:01:15;;;;;;;8.13;3.00;;;;;;;18.42;nan;98240.00;5012916;28;20451;-78
2023/08/02 06:03:40;;;;;;;5.37;4.30;;;;;;;18.43;nan;98233.66;5005906;28;20221;-77
2023/08/02 06:06:06;;;;;;;3.97;2.63;;;;;;;18.42;nan;98224.06;5005363;28;20286;-77
2023/08/02 06:08:31;;;;;;;4.37;2.10;;;;;;;18.43;nan;98217.72;5007700;28;20533;-77
2023/08/02 06:10:57;;;;;;;2.60;2.33;;;;;;;18.45;nan;98215.72;5006213;28;20199;-78
2023/08/02 06:13:22;;;;;;;5.93;2.90;;;;;;;18.47;nan;98208.38;5006693;28;20203;-78
2023/08/02 06:15:48;;;;;;;4.03;2.73;;;;;;;18.50;nan;98212.50;5007366;28;20232;-76
2023/08/02 06:18:13;;;;;;;4.23;2.53;;;;;;;18.53;nan;98201.50;5008614;28;20236;-76
2023/08/02 06:20:38;;;;;;;3.87;3.13;;;;;;;18.53;nan;98212.97;5006802;28;20210;-77
2023/08/02 06:23:04;;;;;;;3.30;2.80;;;;;;;18.54;nan;98195.16;5002091;28;20623;-76
2023/08/02 06:25:30;;;;;;;4.50;2.60;;;;;;;18.55;nan;98194.16;5003926;28;20213;-79
2023/08/02 06:27:55;;;;;;;2.50;2.30;;;;;;;18.54;nan;98193.34;5006213;28;20725;-79
2023/08/02 06:30:21;;;;;;;8.93;3.00;;;;;;;18.56;nan;98191.31;5006151;28;20580;-79
2023/08/02 06:32:46;;;;;;;3.20;2.50;;;;;;;18.58;nan;98194.63;5007525;28;20217;-78
2023/08/02 06:35:12;;;;;;;4.90;2.40;;;;;;;18.62;nan;98188.94;5008504;28;20235;-77
2023/08/02 06:37:37;;;;;;;3.57;3.27;;;;;;;18.64;nan;98193.06;5008732;28;20292;-78
2023/08/02 06:40:03;;;;;;;4.87;3.00;;;;;;;18.71;nan;98186.00;5014559;28;20309;-78
2023/08/02 06:42:28;;;;;;;3.03;2.43;;;;;;;18.75;nan;98195.28;5012654;28;23205;-76
2023/08/02 06:44:54;;;;;;;3.80;2.70;;;;;;;18.79;nan;98185.94;5012743;28;20279;-78
2023/08/02 06:47:20;;;;;;;3.07;1.53;;;;;;;18.87;nan;98185.00;5015626;28;20214;-76
2023/08/02 06:49:45;;;;;;;5.17;2.57;;;;;;;18.93;nan;98191.41;5014947;28;20195;-77
2023/08/02 06:55:06;;;;;;;4.37;2.40;;;;;;;19.04;nan;98187.44;6091761;23;20269;-79
2023/08/02 06:57:32;;;;;;;4.03;1.97;;;;;;;19.07;nan;98179.94;4976664;28;21011;-79
2023/08/02 06:59:57;;;;;;;2.57;2.33;;;;;;;19.12;nan;98169.56;4978878;28;20205;-77
2023/08/02 07:02:22;;;;;;;2.93;1.93;;;;;;;19.17;nan;98167.16;4975051;28;20282;-78
2023/08/02 07:04:48;;;;;;;4.40;2.90;;;;;;;19.23;nan;98184.22;4978124;28;21200;-78
2023/08/02 07:07:13;;;;;;;3.83;2.50;;;;;;;19.28;nan;98183.63;4978028;28;20287;-77
2023/08/02 07:09:39;;;;;;;3.40;2.17;;;;;;;19.30;nan;98189.59;4974062;28;20613;-78
2023/08/02 07:12:04;;;;;;;2.53;2.33;;;;;;;19.31;nan;98188.56;4975155;28;20226;-77
2023/08/02 07:14:30;;;;;;;2.40;1.80;;;;;;;19.34;nan;98193.53;4975989;28;20253;-77
2023/08/02 07:16:55;;;;;;;2.50;2.03;;;;;;;19.36;nan;98180.84;4974537;28;20555;-78
2023/08/02 07:19:20;;;;;;;3.10;2.00;;;;;;;19.41;nan;98178.44;4974040;28;20212;-78
2023/08/02 07:21:46;;;;;;;3.70;2.03;;;;;;;19.45;nan;98172.56;4974788;28;20199;-77
2023/08/02 07:24:11;;;;;;;4.33;2.30;;;;;;;19.53;nan;98182.28;4975557;28;20302;-77
2023/08/02 07:26:36;;;;;;;4.67;2.63;;;;;;;19.60;nan;98183.16;4976336;28;20223;-77
2023/08/02 07:29:02;;;;;;;2.23;1.87;;;;;;;19.65;nan;98167.41;4972743;28;20212;-77
2023/08/02 07:31:27;;;;;;;5.13;3.90;;;;;;;19.72;nan;98172.84;4974122;28;20214;-77
2023/08/02 07:33:52;;;;;;;5.07;2.73;;;;;;;19.79;nan;98156.91;4975249;28;20204;-77
2023/08/02 07:36:19;;;;;;;3.87;3.10;;;;;;;19.86;nan;98155.13;4972671;28;20570;-77
2023/08/02 07:38:45;;;;;;;4.47;2.07;;;;;;;19.93;nan;98134.72;4975483;28;20242;-76
2023/08/02 07:41:11;;;;;;;3.73;2.60;;;;;;;20.01;nan;98144.38;4972459;28;21001;-78
2023/08/02 07:43:36;;;;;;;3.50;2.23;;;;;;;20.10;nan;98149.38;4970864;28;20478;-77
2023/08/02 07:46:02;;;;;;;3.90;2.67;;;;;;;20.21;nan;98144.53;4975883;28;20302;-78
2023/08/02 07:48:28;;;;;;;4.20;2.50;;;;;;;20.30;nan;98135.34;4975225;28;20219;-77
2023/08/02 07:50:53;;;;;;;3.07;2.60;;;;;;;20.39;nan;98134.19;4979450;28;20878;-78
2023/08/02 07:53:18;;;;;;;3.03;2.50;;;;;;;20.46;nan;98127.03;4975461;28;20357;-78
2023/08/02 07:55:44;;;;;;;3.27;2.60;;;;;;;20.51;nan;98127.25;4974703;28;20292;-78
2023/08/02 07:58:09;;;;;;;4.53;2.90;;;;;;;20.57;nan;98119.53;4973281;28;20216;-78
2023/08/02 08:00:34;;;;;;;4.87;4.47;;;;;;;20.59;nan;98117.50;4976801;28;20273;-78
2023/08/02 08:03:03;;;;;;;5.40;2.60;;;;;;;20.62;nan;98117.91;4975591;28;20213;-78
2023/08/02 08:05:29;;;;;;;3.27;2.60;;;;;;;20.67;nan;98114.66;4976964;28;20201;-78
2023/08/02 08:07:54;;;;;;;3.40;2.23;;;;;;;20.70;nan;98115.06;4978265;28;20572;-78
2023/08/02 08:10:20;;;;;;;5.07;2.40;;;;;;;20.76;nan;98110.78;4979171;28;20566;-78
2023/08/02 08:12:45;;;;;;;4.23;2.50;;;;;;;20.84;nan;98115.94;4981634;28;20680;-78
2023/08/02 08:15:11;;;;;;;5.80;3.07;;;;;;;20.87;nan;98120.88;4981494;28;20241;-78
2023/08/02 08:17:36;;;;;;;4.37;3.00;;;;;;;20.90;nan;98120.50;4976694;28;20327;-78
2023/08/02 08:20:04;;;;;;;3.73;2.53;;;;;;;20.92;nan;98110.41;4980578;28;20595;-78
2023/08/02 08:22:29;;;;;;;6.80;3.23;;;;;;;20.95;nan;98103.84;4980741;28;20680;-78
2023/08/02 08:24:55;;;;;;;4.53;2.90;;;;;;;21.01;nan;98097.75;4979861;28;21052;-78
2023/08/02 08:27:21;;;;;;;4.33;2.70;;;;;;;21.08;nan;98087.06;4983130;28;20223;-78
2023/08/02 08:29:46;;;;;;;4.17;2.87;;;;;;;21.17;nan;98100.03;4979298;28;20483;-78
2023/08/02 08:32:12;;;;;;;3.47;2.97;;;;;;;21.22;nan;98102.06;4980169;28;20284;-79
2023/08/02 08:34:37;;;;;;;2.80;2.37;;;;;;;21.27;nan;98086.28;4981313;28;20761;-78
2023/08/02 08:37:03;;;;;;;3.50;2.70;;;;;;;21.31;nan;98070.69;4982634;28;20211;-78
2023/08/02 08:39:28;;;;;;;3.30;2.97;;;;;;;21.36;nan;98085.06;4977714;28;20224;-78
2023/08/02 08:41:53;;;;;;;3.60;2.50;;;;;;;21.39;nan;98073.19;4980619;28;20213;-78
2023/08/02 08:44:19;;;;;;;3.20;2.57;;;;;;;21.46;nan;98078.53;4981010;28;20559;-78
2023/08/02 08:46:46;;;;;;;4.63;2.73;;;;;;;21.54;nan;98075.66;4977971;28;20232;-78
2023/08/02 08:49:11;;;;;;;3.03;1.90;;;;;;;21.61;nan;98066.59;4978074;28;20688;-78
2023/08/02 08:51:41;;;;;;;4.50;2.83;;;;;;;21.69;nan;98062.91;4977999;28;20495;-78
2023/08/02 08:54:16;;;;;;;5.73;2.87;;;;;;;21.71;nan;98076.88;4979435;28;20208;-78
2023/08/02 08:56:41;;;;;;;4.17;3.33;;;;;;;21.75;nan;98075.44;4978201;28;20553;-78
2023/08/02 08:59:08;;;;;;;3.27;2.70;;;;;;;21.79;nan;98068.66;4977865;28;20467;-78
2023/08/02 09:01:35;;;;;;;3.67;2.80;;;;;;;21.83;nan;98061.84;4978654;28;20204;-78
2023/08/02 09:04:02;;;;;;;3.60;2.80;;;;;;;21.90;nan;98058.34;4977501;28;20481;-82
2023/08/02 09:06:28;;;;;;;5.30;2.50;;;;;;;22.01;nan;98055.06;4983658;28;20454;-77
2023/08/02 09:08:54;;;;;;;3.57;2.87;;;;;;;22.08;nan;98048.63;4977882;28;20897;-77
2023/08/02 09:11:19;;;;;;;2.67;2.37;;;;;;;22.17;nan;98030.53;4979446;28;20500;-77
2023/08/02 09:13:45;;;;;;;3.07;2.67;;;;;;;22.26;nan;98037.31;4976449;28;20204;-77
2023/08/02 09:16:13;;;;;;;3.17;2.87;;;;;;;22.36;nan;98038.72;4975864;28;20211;-77
2023/08/02 09:18:47;;;;;;;3.60;2.60;;;;;;;22.49;nan;98035.97;4974620;28;21054;-77
2023/08/02 09:21:15;;;;;;;4.50;2.47;;;;;;;22.59;nan;98033.69;4973040;28;20889;-77
2023/08/02 09:23:47;;;;;;;3.37;2.40;;;;;;;22.72;nan;98038.97;4974172;28;20472;-77
2023/08/02 09:26:16;;;;;;;3.90;3.20;;;;;;;22.88;nan;98031.47;4975116;28;20482;-77
2023/08/02 09:29:04;;;;;;;3.23;2.43;;;;;;;23.02;nan;98017.00;4975491;28;20457;-77
2023/08/02 09:31:32;;;;;;;4.23;2.97;;;;;;;23.20;nan;98008.22;4973848;28;20467;-77
2023/08/02 09:33:58;;;;;;;4.27;2.57;;;;;;;23.47;nan;98002.66;4971912;28;20471;-77
2023/08/02 09:36:28;;;;;;;4.17;3.20;;;;;;;23.92;nan;97989.81;4974804;28;20456;-77
2023/08/02 09:38:54;;;;;;;3.90;3.10;;;;;;;24.45;nan;97988.41;4975125;28;20204;-77
2023/08/02 09:41:23;;;;;;;5.30;3.33;;;;;;;24.92;nan;97986.72;4971071;28;21147;-77
2023/08/02 09:43:51;;;;;;;3.03;2.70;;;;;;;25.39;nan;97996.75;4977109;28;20437;-77
2023/08/02 09:46:43;;;;;;;4.37;2.37;;;;;;;25.71;nan;97991.88;4976286;28;20449;-77
2023/08/02 09:49:17;;;;;;;6.33;2.60;;;;;;;26.01;nan;97991.75;4970220;28;21033;-76
2023/08/02 09:51:44;;;;;;;3.73;2.70;;;;;;;26.22;nan;97989.44;4975659;28;20428;-77
2023/08/02 09:54:12;;;;;;;4.10;3.00;;;;;;;26.29;nan;97974.00;4975014;28;21041;-77
2023/08/02 09:56:39;;;;;;;3.80;2.87;;;;;;;26.30;nan;97975.63;4975865;28;20567;-77
2023/08/02 09:59:06;;;;;;;3.70;2.80;;;;;;;26.29;nan;97970.50;4977093;28;20510;-77
2023/08/02 10:01:33;;;;;;;2.70;2.47;;;;;;;26.33;nan;97967.09;4977190;28;20548;-77
2023/08/02 10:04:02;;;;;;;2.57;2.37;;;;;;;26.44;nan;97968.91;4976504;28;20467;-77
2023/08/02 10:06:37;;;;;;;4.60;2.70;;;;;;;26.55;nan;97961.88;4978735;28;20439;-77
2023/08/02 10:09:08;;;;;;;3.00;2.13;;;;;;;26.62;nan;97959.03;4974811;28;20470;-77
2023/08/02 10:11:43;;;;;;;3.67;3.20;;;;;;;26.63;nan;97966.06;4976609;28;20476;-77
2023/08/02 10:14:09;;;;;;;3.67;3.00;;;;;;;26.69;nan;97962.41;4975468;28;20462;-77
2023/08/02 10:16:35;;;;;;;3.80;2.03;;;;;;;26.79;nan;97959.88;4976902;28;21303;-77
2023/08/02 10:19:01;;;;;;;4.70;3.20;;;;;;;26.93;nan;97955.81;4976912;28;20204;-77
2023/08/02 10:21:29;;;;;;;5.03;2.53;;;;;;;27.09;nan;97932.63;4974760;28;20461;-77
2023/08/02 10:23:57;;;;;;;3.80;2.80;;;;;;;27.13;nan;97928.38;4977252;28;20261;-77
2023/08/02 10:26:23;;;;;;;2.70;2.37;;;;;;;27.12;nan;97932.16;4973453;28;20521;-77
2023/08/02 10:28:49;;;;;;;5.80;3.30;;;;;;;27.14;nan;97930.03;4976486;28;20853;-77
2023/08/02 10:31:14;;;;;;;3.63;2.97;;;;;;;27.19;nan;97917.72;4972449;28;20290;-75
2023/08/02 10:33:40;;;;;;;4.73;3.17;;;;;;;27.28;nan;97914.34;4974773;28;20550;-76
2023/08/02 10:36:07;;;;;;;3.17;2.43;;;;;;;27.53;nan;97908.50;4972875;28;20300;-77
2023/08/02 10:38:38;;;;;;;4.60;2.57;;;;;;;27.84;nan;97903.56;4976219;28;20250;-76
2023/08/02 10:41:09;;;;;;;4.40;2.83;;;;;;;28.15;nan;97917.41;4975895;28;20467;-76
2023/08/02 10:43:54;;;;;;;3.57;3.07;;;;;;;28.25;nan;97895.94;4975266;28;21005;-77
2023/08/02 10:46:27;;;;;;;4.13;2.60;;;;;;;28.23;nan;97892.66;4973445;28;20893;-77
2023/08/02 10:49:13;;;;;;;3.33;2.40;;;;;;;28.30;nan;97887.03;4977598;28;20423;-77
2023/08/02 10:51:38;;;;;;;3.53;2.73;;;;;;;28.44;nan;97899.13;4969292;28;20961;-77
2023/08/02 10:54:22;;;;;;;4.70;2.17;;;;;;;28.55;nan;97881.94;4973701;28;20528;-77
2023/08/02 10:56:58;;;;;;;3.37;2.47;;;;;;;28.42;nan;97872.31;4972111;28;20727;-77
2023/08/02 10:59:24;;;;;;;2.63;1.93;;;;;;;28.26;nan;97873.25;4976849;28;20565;-77
2023/08/02 11:02:10;;;;;;;4.93;2.73;;;;;;;28.12;nan;97861.22;4972950;28;20442;-77
2023/08/02 11:04:37;;;;;;;4.50;2.20;;;;;;;28.13;nan;97855.56;4972897;28;20210;-77
2023/08/02 11:07:21;;;;;;;3.63;2.50;;;;;;;28.31;nan;97867.09;4972409;28;20495;-77
2023/08/02 11:09:48;;;;;;;2.73;2.53;;;;;;;28.44;nan;97861.31;4969851;28;20458;-77
2023/08/02 11:12:19;;;;;;;3.43;2.20;;;;;;;28.50;nan;97864.88;4970091;28;20466;-77
2023/08/02 11:14:46;;;;;;;3.87;2.73;;;;;;;28.48;nan;97861.59;4974930;28;21599;-77
2023/08/02 11:17:16;;;;;;;2.73;2.20;;;;;;;28.35;nan;97869.00;4976593;28;20461;-77
2023/08/02 11:19:47;;;;;;;6.10;2.53;;;;;;;28.17;nan;97870.19;4973583;28;20468;-77
2023/08/02 11:22:12;;;;;;;7.17;2.90;;;;;;;28.08;nan;97862.78;4973903;28;20445;-77
2023/08/02 11:24:45;;;;;;;2.93;2.67;;;;;;;28.00;nan;97872.16;4972911;28;20470;-77
2023/08/02 11:27:21;;;;;;;2.57;1.87;;;;;;;27.89;nan;97856.91;4977157;28;20211;-77
2023/08/02 11:30:07;;;;;;;2.10;1.80;;;;;;;27.82;nan;97853.63;4976250;28;21123;-77
2023/08/02 11:32:34;;;;;;;4.13;2.73;;;;;;;27.77;nan;97860.53;4977102;28;20469;-76
2023/08/02 11:35:00;;;;;;;3.97;2.10;;;;;;;27.74;nan;97846.75;4973460;28;20488;-77
2023/08/02 11:37:26;;;;;;;3.63;2.60;;;;;;;27.68;nan;97845.88;4973617;28;20470;-79
2023/08/02 11:39:56;;;;;;;4.43;2.60;;;;;;;27.66;nan;97833.69;4973354;28;20462;-77
2023/08/02 11:42:22;;;;;;;3.03;2.33;;;;;;;27.67;nan;97824.53;4974504;28;20938;-76
2023/08/02 11:44:48;;;;;;;3.83;1.50;;;;;;;27.72;nan;97821.88;4979517;28;20459;-76
2023/08/02 11:47:13;;;;;;;2.90;1.83;;;;;;;27.82;nan;97815.84;4977085;28;20560;-76
2023/08/02 11:49:49;;;;;;;3.07;2.30;;;;;;;27.93;nan;97813.00;4976066;28;20203;-76
2023/08/02 11:52:24;;;;;;;3.07;1.83;;;;;;;27.99;nan;97803.06;4977281;28;20203;-75